Time;durP1;ratioP1;P1;durP2;ratioP2;P2;SDS_P1;SDS_P2;PMS_P1;PMS_P2;Temp;Humidity;BMP_temperature;BMP_pressure;BME280_temperature;BME280_humidity;BME280_pressure;Samples;Min_cycle;Max_cycle;Signal;HPM_P1;HPM_P2
2022/07/17 00:04:20;;;;;;;4.50;4.10;;;20.70;60.80;;;;;;10543621;28;20228;-80
2022/07/17 00:09:22;;;;;;;4.00;3.70;;;20.60;60.30;;;;;;10527110;28;20204;-80
2022/07/17 00:14:25;;;;;;;4.00;3.70;;;20.60;60.70;;;;;;10527183;28;20215;-81
2022/07/17 00:19:28;;;;;;;4.37;4.07;;;20.60;60.50;;;;;;10535686;28;20195;-81
2022/07/17 00:24:30;;;;;;;4.60;4.20;;;20.60;60.20;;;;;;10534362;28;20275;-80
2022/07/17 00:29:33;;;;;;;4.80;3.63;;;20.50;61.20;;;;;;10532157;28;20208;-79
2022/07/17 00:34:36;;;;;;;4.00;3.70;;;20.50;61.80;;;;;;10546342;28;20221;-80
2022/07/17 00:39:38;;;;;;;3.97;3.67;;;20.40;60.60;;;;;;10527667;28;20215;-80
2022/07/17 00:44:41;;;;;;;3.57;3.33;;;20.40;60.30;;;;;;10547275;28;20227;-81
2022/07/17 00:50:06;;;;;;;4.20;3.90;;;20.30;60.20;;;;;;10511925;28;20200;-81
2022/07/17 00:55:09;;;;;;;4.13;3.70;;;20.30;60.40;;;;;;10465563;28;20267;-82
2022/07/17 01:00:14;;;;;;;3.83;3.53;;;20.20;61.70;;;;;;10459945;28;20241;-82
2022/07/17 01:05:17;;;;;;;3.70;3.50;;;20.20;61.80;;;;;;10453039;28;20217;-82
2022/07/17 01:10:20;;;;;;;4.33;4.00;;;20.10;61.60;;;;;;10444898;28;20599;-82
2022/07/17 01:15:24;;;;;;;3.73;3.37;;;20.10;62.40;;;;;;10463251;28;20201;-82
2022/07/17 01:20:26;;;;;;;3.60;3.40;;;20.10;61.60;;;;;;10449213;28;20213;-82
2022/07/17 01:25:30;;;;;;;3.40;3.10;;;20.00;61.60;;;;;;10437554;28;20225;-82
2022/07/17 01:30:32;;;;;;;4.07;3.63;;;19.90;61.90;;;;;;10416264;28;20217;-80
2022/07/17 01:35:35;;;;;;;3.90;3.70;;;19.90;61.90;;;;;;10440296;28;20577;-82
2022/07/17 01:40:38;;;;;;;3.53;3.13;;;19.90;62.10;;;;;;10447690;28;20241;-82
2022/07/17 01:45:40;;;;;;;3.80;3.50;;;19.80;63.60;;;;;;10452871;28;20225;-82
2022/07/17 01:50:43;;;;;;;4.13;3.83;;;19.80;63.20;;;;;;10437135;28;20234;-82
2022/07/17 01:55:46;;;;;;;5.17;4.67;;;19.80;63.00;;;;;;10447006;28;20232;-82
2022/07/17 02:00:48;;;;;;;3.90;3.70;;;19.70;63.60;;;;;;10430033;28;20235;-82
2022/07/17 02:05:50;;;;;;;4.57;4.17;;;19.70;63.30;;;;;;10443148;28;20248;-82
2022/07/17 02:10:54;;;;;;;4.87;4.30;;;19.70;63.90;;;;;;10458688;28;20296;-82
2022/07/17 02:15:56;;;;;;;6.20;4.37;;;19.60;64.00;;;;;;10438947;28;20289;-82
2022/07/17 02:20:58;;;;;;;4.97;4.50;;;19.60;64.10;;;;;;10421101;28;20250;-82
2022/07/17 02:26:01;;;;;;;5.57;5.17;;;19.50;62.40;;;;;;10414205;28;20248;-82
2022/07/17 02:31:04;;;;;;;5.23;4.80;;;19.50;65.40;;;;;;10425744;28;20222;-82
2022/07/17 02:36:07;;;;;;;5.20;4.70;;;19.40;64.40;;;;;;10441494;28;20204;-82
2022/07/17 02:41:10;;;;;;;5.37;4.87;;;19.40;65.40;;;;;;10451105;28;20240;-82
2022/07/17 02:46:13;;;;;;;4.90;4.50;;;19.30;65.70;;;;;;10442719;28;20295;-82
2022/07/17 02:51:16;;;;;;;4.97;4.63;;;19.30;65.70;;;;;;10443178;28;20287;-82
2022/07/17 02:56:19;;;;;;;4.93;4.57;;;19.30;65.70;;;;;;10434930;28;20201;-82
2022/07/17 03:01:22;;;;;;;5.07;4.53;;;19.30;66.00;;;;;;10433178;28;20251;-81
2022/07/17 03:06:24;;;;;;;5.20;4.80;;;19.30;66.60;;;;;;10464321;28;20300;-81
2022/07/17 03:11:27;;;;;;;6.93;4.93;;;19.30;67.20;;;;;;10468794;28;20247;-82
2022/07/17 03:16:29;;;;;;;9.63;4.67;;;19.20;65.70;;;;;;10432293;28;20194;-81
2022/07/17 03:21:33;;;;;;;7.20;4.90;;;19.20;65.50;;;;;;10446839;28;20226;-82
2022/07/17 03:26:36;;;;;;;5.30;4.80;;;19.10;66.40;;;;;;10447519;28;20253;-82
2022/07/17 03:31:39;;;;;;;5.70;5.10;;;19.10;66.90;;;;;;10447966;28;20221;-82
2022/07/17 03:36:41;;;;;;;4.93;4.53;;;19.10;66.60;;;;;;10461837;28;20228;-82
2022/07/17 03:41:44;;;;;;;4.90;4.50;;;19.00;66.50;;;;;;10451936;28;20277;-82
2022/07/17 03:46:46;;;;;;;4.93;4.53;;;19.00;67.60;;;;;;10443312;28;20284;-82
2022/07/17 03:51:49;;;;;;;5.63;5.00;;;19.00;66.70;;;;;;10444413;28;20236;-82
2022/07/17 03:56:52;;;;;;;5.50;4.17;;;18.90;67.20;;;;;;10446374;28;20209;-82
2022/07/17 04:01:54;;;;;;;5.57;4.70;;;18.90;67.60;;;;;;10442050;28;20299;-81
2022/07/17 04:06:57;;;;;;;5.30;4.80;;;18.90;67.50;;;;;;10443115;28;20225;-81
2022/07/17 04:12:00;;;;;;;5.03;4.70;;;18.80;67.70;;;;;;10432904;28;20256;-81
2022/07/17 04:17:02;;;;;;;4.60;4.40;;;18.80;68.10;;;;;;10453708;28;20271;-82
2022/07/17 04:22:04;;;;;;;5.33;4.70;;;18.80;67.90;;;;;;10433164;28;20226;-81
2022/07/17 04:27:08;;;;;;;5.17;4.67;;;18.80;68.10;;;;;;10451477;28;20275;-81
2022/07/17 04:32:10;;;;;;;5.17;4.87;;;18.80;68.90;;;;;;10464969;28;20217;-81
2022/07/17 04:37:12;;;;;;;5.20;4.67;;;18.90;68.70;;;;;;10451608;28;20225;-81
2022/07/17 04:42:16;;;;;;;4.63;4.33;;;18.90;68.90;;;;;;10453875;28;20238;-82
2022/07/17 04:47:18;;;;;;;5.23;4.83;;;18.80;69.00;;;;;;10441154;28;20197;-80
2022/07/17 04:52:20;;;;;;;5.87;5.37;;;18.80;69.40;;;;;;10437476;28;20258;-79
2022/07/17 04:57:23;;;;;;;6.17;5.57;;;18.80;69.40;;;;;;10389774;28;20324;-80
2022/07/17 05:02:25;;;;;;;5.83;5.33;;;18.80;70.60;;;;;;10393553;28;20222;-80
2022/07/17 05:07:28;;;;;;;6.03;5.40;;;18.90;70.10;;;;;;10415875;28;20202;-80
2022/07/17 05:12:31;;;;;;;6.40;5.90;;;18.90;71.30;;;;;;10420712;28;20218;-80
2022/07/17 05:17:33;;;;;;;6.00;5.40;;;18.90;71.20;;;;;;10411070;28;20202;-80
2022/07/17 05:22:36;;;;;;;6.10;5.60;;;18.90;70.20;;;;;;10393940;28;20350;-80
2022/07/17 05:27:39;;;;;;;6.10;5.50;;;18.90;69.30;;;;;;10410006;28;20209;-81
2022/07/17 05:32:41;;;;;;;5.67;5.17;;;18.90;70.80;;;;;;10392522;28;20312;-80
2022/07/17 05:37:43;;;;;;;6.63;6.00;;;19.00;70.60;;;;;;10419602;28;20233;-79
2022/07/17 05:42:47;;;;;;;6.43;6.00;;;19.00;70.30;;;;;;10407147;28;20222;-80
2022/07/17 05:47:49;;;;;;;6.13;5.53;;;19.10;70.00;;;;;;10391426;28;20229;-80
2022/07/17 05:52:51;;;;;;;5.93;5.47;;;19.10;71.10;;;;;;10436508;28;20225;-81
2022/07/17 05:57:54;;;;;;;5.63;5.23;;;19.20;70.80;;;;;;10441153;28;20280;-81
2022/07/17 06:02:56;;;;;;;7.53;6.83;;;19.20;71.50;;;;;;10440066;28;20221;-80
2022/07/17 06:07:59;;;;;;;6.83;6.33;;;19.30;70.70;;;;;;10446357;28;20228;-81
2022/07/17 06:13:03;;;;;;;7.43;6.73;;;19.40;70.40;;;;;;10457129;28;20225;-80
2022/07/17 06:18:05;;;;;;;7.50;6.80;;;19.50;70.50;;;;;;10428793;28;20239;-80
2022/07/17 06:23:07;;;;;;;7.80;7.00;;;19.60;70.60;;;;;;10410820;28;20232;-80
2022/07/17 06:28:11;;;;;;;6.60;6.00;;;19.70;70.60;;;;;;10443056;28;20292;-80
2022/07/17 06:33:13;;;;;;;6.93;6.27;;;19.80;70.30;;;;;;10446737;28;20312;-81
2022/07/17 06:38:15;;;;;;;6.73;6.23;;;19.90;69.80;;;;;;10434856;28;20216;-81
2022/07/17 06:43:18;;;;;;;7.00;6.30;;;20.10;68.40;;;;;;10444938;28;20301;-81
2022/07/17 06:48:21;;;;;;;7.00;6.40;;;20.40;68.50;;;;;;10447389;28;20194;-80
2022/07/17 06:53:23;;;;;;;5.50;5.10;;;20.80;68.10;;;;;;10433703;28;20228;-81
2022/07/17 06:58:26;;;;;;;6.30;5.80;;;21.10;67.20;;;;;;10463096;28;20705;-80
2022/07/17 07:03:29;;;;;;;6.03;5.53;;;21.50;66.20;;;;;;10463070;28;20232;-80
2022/07/17 07:08:31;;;;;;;6.83;5.23;;;21.80;65.80;;;;;;10430382;28;20283;-80
2022/07/17 07:13:34;;;;;;;5.50;5.10;;;22.10;63.60;;;;;;10464403;28;20276;-80
2022/07/17 07:18:36;;;;;;;5.17;4.77;;;22.50;62.60;;;;;;10456676;28;20736;-81
2022/07/17 07:23:39;;;;;;;5.17;4.67;;;22.80;62.00;;;;;;10428561;28;20270;-81
2022/07/17 07:28:42;;;;;;;4.53;4.23;;;23.20;60.30;;;;;;10460388;28;20255;-81
2022/07/17 07:33:45;;;;;;;4.50;4.20;;;23.50;59.30;;;;;;10427612;28;20213;-80
2022/07/17 07:38:47;;;;;;;4.20;3.87;;;23.90;57.90;;;;;;10444678;28;20201;-80
2022/07/17 07:43:50;;;;;;;4.00;3.70;;;24.30;57.20;;;;;;10417629;28;20209;-82
2022/07/17 07:48:52;;;;;;;4.33;4.03;;;24.70;56.70;;;;;;10461847;28;20272;-82
2022/07/17 07:53:54;;;;;;;5.27;4.87;;;25.10;54.90;;;;;;10374661;28;1072213;-82
2022/07/17 07:58:58;;;;;;;4.50;4.10;;;25.60;54.90;;;;;;10427529;28;20272;-82
2022/07/17 08:04:00;;;;;;;4.43;4.00;;;26.00;54.20;;;;;;10436792;28;20354;-83
2022/07/17 08:09:08;;;;;;;4.20;4.00;;;26.60;54.00;;;;;;10430743;28;20225;-83
2022/07/17 08:14:12;;;;;;;3.77;3.57;;;27.00;52.70;;;;;;10444876;28;20217;-82
2022/07/17 08:19:14;;;;;;;4.50;4.20;;;27.50;50.70;;;;;;10425614;28;20534;-80
2022/07/17 08:24:16;;;;;;;3.70;3.50;;;27.90;50.80;;;;;;10442311;28;20246;-80
2022/07/17 08:29:19;;;;;;;3.77;3.50;;;28.30;50.30;;;;;;10430110;28;20198;-83
2022/07/17 08:34:22;;;;;;;3.27;3.17;;;28.80;48.30;;;;;;10465290;28;20221;-81
2022/07/17 08:39:24;;;;;;;3.13;3.03;;;29.10;48.20;;;;;;10431959;28;20294;-81
2022/07/17 08:44:27;;;;;;;3.43;3.23;;;29.50;48.30;;;;;;10430480;28;20343;-81
2022/07/17 08:49:30;;;;;;;3.60;3.30;;;29.80;46.60;;;;;;10421077;28;20205;-81
2022/07/17 08:54:33;;;;;;;3.53;3.33;;;30.10;46.80;;;;;;10464744;28;20253;-81
2022/07/17 08:59:36;;;;;;;3.70;3.40;;;30.30;47.40;;;;;;10433720;28;20204;-81
2022/07/17 09:04:40;;;;;;;4.27;3.90;;;30.60;46.20;;;;;;10446696;28;20709;-81
2022/07/17 09:09:50;;;;;;;3.10;2.90;;;30.90;45.30;;;;;;10432912;28;20212;-81
2022/07/17 09:14:54;;;;;;;3.30;3.00;;;31.00;45.10;;;;;;10446611;28;20259;-81
2022/07/17 09:19:56;;;;;;;3.53;3.23;;;31.20;45.00;;;;;;10429238;28;20204;-81
2022/07/17 09:24:59;;;;;;;7.47;4.90;;;31.30;44.10;;;;;;10472336;28;20518;-81
2022/07/17 09:30:05;;;;;;;3.10;2.90;;;31.50;44.80;;;;;;10428035;28;20232;-80
2022/07/17 09:35:09;;;;;;;3.60;3.40;;;31.60;44.00;;;;;;10428307;28;20229;-81
2022/07/17 09:45:53;;;;;;;2.30;2.20;;;32.00;43.60;;;;;;10463924;28;20213;-80
2022/07/17 09:50:55;;;;;;;3.27;3.17;;;32.20;42.70;;;;;;10413812;28;20689;-81
2022/07/17 09:55:59;;;;;;;3.30;3.20;;;32.70;42.40;;;;;;10429863;28;20190;-81
2022/07/17 10:01:03;;;;;;;2.63;2.47;;;33.20;40.90;;;;;;10382796;28;20231;-83
2022/07/17 10:06:05;;;;;;;2.70;2.60;;;34.00;38.70;;;;;;10382657;28;20300;-83
2022/07/17 10:11:28;;;;;;;2.50;2.40;;;35.10;37.10;;;;;;10416150;28;20331;-82
2022/07/17 10:16:35;;;;;;;5.43;2.80;;;35.90;35.60;;;;;;10409536;28;20271;-83
2022/07/17 10:21:40;;;;;;;2.60;2.50;;;36.20;35.30;;;;;;10385081;28;20221;-81
2022/07/17 10:26:50;;;;;;;3.10;3.00;;;36.30;35.20;;;;;;10437458;28;20193;-80
2022/07/17 10:31:54;;;;;;;2.97;2.77;;;35.60;36.30;;;;;;10403843;28;20217;-80
2022/07/17 10:37:04;;;;;;;8.70;8.00;;;34.20;37.60;;;;;;10420928;28;20213;-82
2022/07/17 10:42:07;;;;;;;3.63;3.33;;;32.80;39.40;;;;;;10405180;28;20218;-80
2022/07/17 10:47:11;;;;;;;3.17;2.97;;;31.60;40.80;;;;;;10397389;28;20198;-81
2022/07/17 10:52:13;;;;;;;4.00;3.70;;;30.60;41.20;;;;;;10439973;28;20289;-82
2022/07/17 10:57:16;;;;;;;3.10;3.00;;;29.80;43.80;;;;;;10430089;28;20597;-81
2022/07/17 11:02:28;;;;;;;4.10;3.90;;;29.20;43.30;;;;;;10422605;28;20248;-82
2022/07/17 11:07:31;;;;;;;4.63;3.40;;;28.70;43.30;;;;;;10455217;28;20264;-82
2022/07/17 11:12:33;;;;;;;3.03;2.93;;;28.30;43.00;;;;;;10450561;28;20716;-82
2022/07/17 11:17:37;;;;;;;3.30;3.10;;;27.90;43.30;;;;;;10465229;28;20525;-82
2022/07/17 11:22:39;;;;;;;3.27;3.07;;;27.70;44.40;;;;;;10432739;28;20263;-81
2022/07/17 11:27:41;;;;;;;2.73;2.63;;;27.50;44.50;;;;;;10463854;28;20205;-81
2022/07/17 11:32:44;;;;;;;2.97;2.77;;;27.30;43.10;;;;;;10433377;28;20284;-82
2022/07/17 11:37:50;;;;;;;3.10;2.90;;;27.10;45.60;;;;;;10466174;28;20279;-82
2022/07/17 11:43:00;;;;;;;4.10;3.80;;;27.00;45.10;;;;;;10449067;28;20317;-82
2022/07/17 11:48:05;;;;;;;3.30;3.10;;;26.90;43.70;;;;;;10443339;28;20201;-79
2022/07/17 11:53:07;;;;;;;2.63;2.53;;;26.80;44.20;;;;;;10439389;28;20226;-81
2022/07/17 11:58:09;;;;;;;3.03;2.83;;;26.80;44.90;;;;;;10410260;28;20222;-80
2022/07/17 12:03:13;;;;;;;2.90;2.80;;;26.80;42.60;;;;;;10426012;28;20224;-81
2022/07/17 12:08:19;;;;;;;2.93;2.83;;;26.60;45.50;;;;;;10462528;28;20220;-81
2022/07/17 12:13:26;;;;;;;3.50;3.30;;;26.60;46.20;;;;;;10443260;28;20221;-80
2022/07/17 12:18:30;;;;;;;3.77;3.47;;;26.50;47.00;;;;;;10424102;28;20791;-82
2022/07/17 12:23:36;;;;;;;3.47;2.70;;;26.40;45.60;;;;;;10433287;28;20227;-79
2022/07/17 12:28:39;;;;;;;3.20;3.00;;;26.50;46.40;;;;;;10422015;28;20610;-79
2022/07/17 12:33:43;;;;;;;3.10;2.90;;;26.50;46.00;;;;;;10428683;28;20241;-82
2022/07/17 12:38:45;;;;;;;5.30;3.00;;;26.50;45.20;;;;;;10422980;28;20588;-83
2022/07/17 12:43:47;;;;;;;3.47;3.27;;;26.50;45.00;;;;;;10451024;28;20276;-83
2022/07/17 12:48:51;;;;;;;3.30;3.10;;;26.50;44.40;;;;;;10410842;28;20212;-83
2022/07/17 12:53:53;;;;;;;2.87;2.77;;;26.60;45.70;;;;;;10519625;22;20292;-80
2022/07/17 12:58:55;;;;;;;3.20;3.00;;;26.60;44.50;;;;;;10503611;28;20189;-79
2022/07/17 13:03:58;;;;;;;2.93;2.83;;;26.60;45.00;;;;;;10483267;28;20220;-79
2022/07/17 13:09:01;;;;;;;3.47;3.27;;;26.80;44.80;;;;;;10500380;28;20212;-80
2022/07/17 13:14:03;;;;;;;3.30;3.10;;;26.90;44.90;;;;;;10480912;28;20307;-79
2022/07/17 13:19:07;;;;;;;3.00;2.90;;;26.90;45.30;;;;;;10502183;28;20192;-81
2022/07/17 13:24:09;;;;;;;3.10;2.90;;;26.90;45.20;;;;;;10486179;28;20481;-80
2022/07/17 13:29:11;;;;;;;2.97;2.87;;;26.90;44.50;;;;;;10502100;28;20224;-80
2022/07/17 13:34:15;;;;;;;2.83;2.73;;;27.00;43.90;;;;;;10500920;28;20234;-79
2022/07/17 13:39:17;;;;;;;3.03;2.90;;;27.00;44.70;;;;;;10481081;28;20204;-81
2022/07/17 13:44:19;;;;;;;2.90;2.80;;;27.00;43.30;;;;;;10500441;28;20700;-81
2022/07/17 13:49:23;;;;;;;3.20;2.90;;;27.00;41.30;;;;;;10482993;28;20287;-81
2022/07/17 13:54:25;;;;;;;7.70;7.00;;;27.00;43.30;;;;;;10501243;28;20252;-80
2022/07/17 13:59:27;;;;;;;3.60;3.40;;;27.00;42.70;;;;;;10480886;28;20204;-82
2022/07/17 14:04:31;;;;;;;3.73;2.90;;;27.00;42.20;;;;;;10464834;28;20293;-81
2022/07/17 14:09:35;;;;;;;2.80;2.60;;;27.00;43.80;;;;;;10474583;28;20196;-82
2022/07/17 14:14:37;;;;;;;3.00;2.80;;;27.00;41.40;;;;;;10482348;28;20228;-82
2022/07/17 14:19:42;;;;;;;3.00;2.90;;;27.10;40.40;;;;;;10502326;28;20263;-79
2022/07/17 14:24:44;;;;;;;2.80;2.70;;;27.20;40.20;;;;;;10472688;28;20216;-79
2022/07/17 14:29:46;;;;;;;2.57;2.37;;;27.20;41.00;;;;;;10486080;28;20920;-80
2022/07/17 14:34:50;;;;;;;2.80;2.70;;;27.20;43.60;;;;;;10503750;28;20262;-80
2022/07/17 14:39:52;;;;;;;2.70;2.60;;;27.10;43.60;;;;;;10486565;28;20246;-80
2022/07/17 14:44:54;;;;;;;2.70;2.60;;;27.10;40.70;;;;;;10504331;28;20216;-80
2022/07/17 14:49:57;;;;;;;2.50;2.30;;;27.00;42.00;;;;;;10473734;28;20239;-80
2022/07/17 14:55:00;;;;;;;3.37;2.57;;;27.00;40.60;;;;;;10513156;28;20264;-79
2022/07/17 15:00:02;;;;;;;2.43;2.33;;;27.00;39.70;;;;;;10512196;28;20203;-80
2022/07/17 15:05:07;;;;;;;2.50;2.40;;;27.10;40.60;;;;;;10495804;28;20220;-80
2022/07/17 15:10:09;;;;;;;3.03;2.70;;;27.10;41.20;;;;;;10513964;28;20204;-80
2022/07/17 15:15:12;;;;;;;2.93;2.73;;;27.00;41.70;;;;;;10476217;28;20213;-79
2022/07/17 15:20:15;;;;;;;2.50;2.40;;;27.00;40.90;;;;;;10513411;28;20257;-79
2022/07/17 15:25:17;;;;;;;6.60;2.97;;;27.10;40.40;;;;;;10504962;28;20200;-80
2022/07/17 15:30:19;;;;;;;2.50;2.40;;;27.10;41.40;;;;;;10475164;28;20205;-79
2022/07/17 15:35:26;;;;;;;2.87;2.77;;;27.10;43.10;;;;;;10490679;28;20302;-78
2022/07/17 15:40:28;;;;;;;2.50;2.40;;;27.10;41.80;;;;;;10473249;28;20259;-80
2022/07/17 15:45:30;;;;;;;2.57;2.47;;;27.00;42.90;;;;;;10493989;28;20935;-81
2022/07/17 15:50:34;;;;;;;2.70;2.60;;;26.90;42.50;;;;;;10508237;28;20228;-80
2022/07/17 15:55:36;;;;;;;2.80;2.70;;;26.90;41.30;;;;;;10507833;28;20753;-81
2022/07/17 16:00:38;;;;;;;4.30;2.80;;;26.90;41.80;;;;;;10492077;28;20217;-82
2022/07/17 16:05:41;;;;;;;4.53;3.80;;;26.90;42.80;;;;;;10483733;28;20813;-81
2022/07/17 16:10:43;;;;;;;2.90;2.70;;;26.80;47.10;;;;;;10512502;28;20216;-80
2022/07/17 16:15:46;;;;;;;2.77;2.57;;;26.80;43.40;;;;;;10499114;28;20213;-79
2022/07/17 16:20:49;;;;;;;2.77;2.67;;;26.80;44.20;;;;;;10502122;28;20289;-79
2022/07/17 16:25:51;;;;;;;2.50;2.40;;;26.80;45.20;;;;;;10487556;28;20200;-79
2022/07/17 16:30:55;;;;;;;3.10;2.80;;;26.80;42.90;;;;;;10491976;28;20224;-77
2022/07/17 16:35:58;;;;;;;2.87;2.67;;;26.80;45.60;;;;;;10456838;28;20266;-79
2022/07/17 16:41:00;;;;;;;3.60;3.30;;;26.70;43.70;;;;;;10480904;28;20796;-78
2022/07/17 16:46:02;;;;;;;2.90;2.70;;;26.80;43.70;;;;;;10489827;28;20204;-79
2022/07/17 16:51:06;;;;;;;3.17;2.97;;;26.80;44.60;;;;;;10502302;28;20251;-79
2022/07/17 16:56:09;;;;;;;3.77;2.97;;;26.80;44.20;;;;;;10504195;28;20228;-78
2022/07/17 17:01:11;;;;;;;2.50;2.40;;;26.80;44.90;;;;;;10500503;28;20230;-78
2022/07/17 17:06:14;;;;;;;2.50;2.40;;;26.80;43.40;;;;;;10458903;28;20200;-79
2022/07/17 17:11:17;;;;;;;2.73;2.63;;;26.80;44.10;;;;;;10468871;28;20587;-80
2022/07/17 17:16:19;;;;;;;2.70;2.50;;;26.80;42.90;;;;;;10487959;28;20274;-80
2022/07/17 17:21:24;;;;;;;2.83;2.70;;;26.80;43.90;;;;;;10487907;28;20228;-80
2022/07/17 17:26:26;;;;;;;2.87;2.67;;;26.80;43.50;;;;;;10491236;28;20231;-81
2022/07/17 17:31:28;;;;;;;2.40;2.30;;;26.80;44.20;;;;;;10468273;28;20216;-79
2022/07/17 17:36:32;;;;;;;2.80;2.60;;;26.70;44.50;;;;;;10474003;28;20251;-79
2022/07/17 17:41:34;;;;;;;2.30;2.20;;;26.60;45.50;;;;;;10490853;28;20220;-79
2022/07/17 17:46:36;;;;;;;2.43;2.33;;;26.60;45.90;;;;;;10493399;28;20204;-80
2022/07/17 17:51:40;;;;;;;2.97;2.77;;;26.50;46.70;;;;;;10487119;28;20235;-78
2022/07/17 17:56:42;;;;;;;3.20;2.53;;;26.40;45.60;;;;;;10478291;28;20904;-81
2022/07/17 18:01:44;;;;;;;2.90;2.70;;;26.40;44.70;;;;;;10482977;28;20277;-78
2022/07/17 18:06:49;;;;;;;2.60;2.50;;;26.30;44.20;;;;;;10481203;28;20220;-78
2022/07/17 18:11:51;;;;;;;3.03;2.83;;;26.30;44.00;;;;;;10483378;28;20577;-79
2022/07/17 18:16:53;;;;;;;2.20;2.10;;;26.30;42.80;;;;;;10462900;28;20244;-78
2022/07/17 18:21:57;;;;;;;2.30;2.20;;;26.30;43.90;;;;;;10467215;28;20224;-80
2022/07/17 18:27:00;;;;;;;3.30;3.10;;;26.30;44.40;;;;;;10472150;28;20998;-79
2022/07/17 18:32:04;;;;;;;3.30;3.10;;;26.20;44.50;;;;;;10479965;28;20220;-78
2022/07/17 18:37:09;;;;;;;3.20;3.00;;;26.10;44.80;;;;;;10485768;28;20217;-78
2022/07/17 18:42:12;;;;;;;4.30;2.67;;;26.10;47.30;;;;;;10476632;28;20729;-79
2022/07/17 18:47:17;;;;;;;2.43;2.33;;;26.00;48.30;;;;;;10485657;28;20236;-79
2022/07/17 18:52:20;;;;;;;3.20;3.00;;;26.00;43.10;;;;;;10486202;28;20306;-80
2022/07/17 18:57:22;;;;;;;2.70;2.60;;;25.80;46.10;;;;;;10479187;28;20220;-79
2022/07/17 19:02:27;;;;;;;3.47;2.53;;;25.70;48.10;;;;;;10496982;28;20243;-78
2022/07/17 19:07:30;;;;;;;4.97;2.80;;;25.60;47.00;;;;;;10447324;28;20291;-79
2022/07/17 19:12:32;;;;;;;2.57;2.37;;;25.50;46.50;;;;;;10447169;28;20330;-78
2022/07/17 19:17:35;;;;;;;3.00;2.70;;;25.50;47.60;;;;;;10487684;28;20251;-78
2022/07/17 19:22:39;;;;;;;3.20;3.00;;;25.30;48.30;;;;;;10480138;28;20225;-78
2022/07/17 19:27:42;;;;;;;3.00;2.80;;;25.20;47.80;;;;;;10498974;28;20210;-77
2022/07/17 19:32:44;;;;;;;2.90;2.70;;;25.10;48.30;;;;;;10496843;28;20244;-79
2022/07/17 19:37:47;;;;;;;3.10;2.90;;;25.00;48.30;;;;;;10485770;28;20216;-78
2022/07/17 19:42:50;;;;;;;3.60;3.30;;;24.80;48.30;;;;;;10500340;28;20726;-80
2022/07/17 19:47:52;;;;;;;5.40;2.80;;;24.70;47.90;;;;;;10491919;28;20568;-79
2022/07/17 19:52:55;;;;;;;3.03;2.80;;;24.50;47.90;;;;;;10498634;28;20357;-80
2022/07/17 19:57:57;;;;;;;2.87;2.67;;;24.40;47.80;;;;;;10498544;28;20220;-79
2022/07/17 20:03:00;;;;;;;2.73;2.60;;;24.30;47.20;;;;;;10498834;28;20245;-79
2022/07/17 20:08:03;;;;;;;3.93;3.63;;;24.10;47.20;;;;;;10492292;28;20193;-80
2022/07/17 20:13:05;;;;;;;3.20;2.90;;;24.00;47.90;;;;;;10486639;28;20314;-78
2022/07/17 20:18:07;;;;;;;3.40;3.10;;;24.00;48.00;;;;;;10492642;28;20229;-78
2022/07/17 20:23:11;;;;;;;2.93;2.83;;;23.90;48.80;;;;;;10494276;28;20718;-78
2022/07/17 20:28:13;;;;;;;3.20;3.00;;;23.80;48.30;;;;;;10482757;28;20852;-78
2022/07/17 20:33:15;;;;;;;3.10;2.90;;;23.70;48.30;;;;;;10442484;28;20711;-80
2022/07/17 20:38:19;;;;;;;3.30;3.10;;;23.70;48.20;;;;;;10472804;28;20212;-78
2022/07/17 20:43:21;;;;;;;2.77;2.57;;;23.60;48.60;;;;;;10475454;28;20252;-80
2022/07/17 20:48:25;;;;;;;2.80;2.60;;;23.50;48.40;;;;;;10492959;28;20278;-80
2022/07/17 20:53:28;;;;;;;2.80;2.60;;;23.40;48.50;;;;;;10489384;28;20317;-80
2022/07/17 20:58:31;;;;;;;3.40;3.20;;;23.40;48.30;;;;;;10493796;28;20218;-79
2022/07/17 21:03:33;;;;;;;3.03;2.73;;;23.40;49.00;;;;;;10500428;28;20270;-79
2022/07/17 21:08:37;;;;;;;2.40;2.30;;;23.40;48.50;;;;;;10482075;28;20704;-79
2022/07/17 21:13:39;;;;;;;3.20;3.00;;;23.30;49.00;;;;;;10495284;28;20284;-79
2022/07/17 21:18:41;;;;;;;2.73;2.53;;;23.30;48.30;;;;;;10499620;28;20768;-79
2022/07/17 21:23:45;;;;;;;3.67;2.50;;;23.20;48.60;;;;;;10481347;28;20222;-78
2022/07/17 21:28:47;;;;;;;3.13;2.93;;;23.20;48.10;;;;;;10496792;28;20196;-78
2022/07/17 21:33:49;;;;;;;2.60;2.40;;;23.10;48.80;;;;;;10500112;28;20216;-79
2022/07/17 21:38:53;;;;;;;2.80;2.60;;;23.00;50.60;;;;;;10501500;28;20228;-78
2022/07/17 21:43:55;;;;;;;3.33;3.07;;;23.00;50.50;;;;;;10482660;28;20235;-78
2022/07/17 21:48:57;;;;;;;3.00;2.77;;;22.90;51.10;;;;;;10502197;28;20196;-77
2022/07/17 21:54:00;;;;;;;3.10;2.90;;;22.90;50.80;;;;;;10498209;28;20339;-79
2022/07/17 21:59:03;;;;;;;3.20;2.90;;;22.80;50.20;;;;;;10502915;28;20220;-78
2022/07/17 22:04:05;;;;;;;2.40;2.20;;;22.80;49.20;;;;;;10502537;28;20579;-79
2022/07/17 22:09:09;;;;;;;2.97;2.77;;;22.80;50.60;;;;;;10477211;28;20588;-78
2022/07/17 22:14:12;;;;;;;4.60;2.67;;;22.70;51.50;;;;;;10493964;28;20252;-79
2022/07/17 22:19:14;;;;;;;2.27;2.17;;;22.70;51.90;;;;;;10467247;28;20856;-81
2022/07/17 22:24:18;;;;;;;3.10;2.90;;;22.70;51.80;;;;;;10467435;28;20228;-80
2022/07/17 22:29:20;;;;;;;2.80;2.60;;;22.60;51.90;;;;;;10488715;28;20208;-79
2022/07/17 22:34:23;;;;;;;3.00;2.80;;;22.60;52.00;;;;;;10487292;28;20229;-80
2022/07/17 22:39:26;;;;;;;2.90;2.70;;;22.60;51.60;;;;;;10469345;28;20772;-78
2022/07/17 22:44:28;;;;;;;2.13;2.03;;;22.50;51.20;;;;;;10482072;28;20688;-79
2022/07/17 22:49:30;;;;;;;2.30;2.20;;;22.50;51.00;;;;;;10489053;28;20220;-80
2022/07/17 22:54:34;;;;;;;2.83;2.37;;;22.40;49.80;;;;;;10488980;28;20673;-78
2022/07/17 22:59:36;;;;;;;2.80;1.97;;;22.40;51.70;;;;;;10483308;28;20247;-80
2022/07/17 23:04:39;;;;;;;2.40;2.20;;;22.30;51.60;;;;;;10489969;28;20228;-80
2022/07/17 23:09:43;;;;;;;2.53;2.37;;;22.20;51.20;;;;;;10492434;28;20204;-80
2022/07/17 23:14:45;;;;;;;2.30;2.13;;;22.20;50.50;;;;;;10496592;28;20243;-80
2022/07/17 23:19:47;;;;;;;2.10;2.00;;;22.10;51.30;;;;;;10491781;28;20220;-78
2022/07/17 23:24:50;;;;;;;2.20;2.10;;;22.10;52.50;;;;;;10482343;28;20277;-79
2022/07/17 23:29:52;;;;;;;2.67;2.40;;;22.10;51.30;;;;;;10506390;28;20200;-79
2022/07/17 23:34:57;;;;;;;2.10;2.00;;;22.00;50.80;;;;;;10507976;28;20287;-79
2022/07/17 23:40:01;;;;;;;2.30;2.10;;;21.90;52.30;;;;;;10498443;28;20221;-80
2022/07/17 23:45:03;;;;;;;2.13;2.03;;;21.90;51.20;;;;;;10504520;28;20235;-79
2022/07/17 23:50:07;;;;;;;2.20;2.00;;;21.80;51.10;;;;;;10504590;28;20285;-78
2022/07/17 23:55:11;;;;;;;2.40;1.80;;;21.80;52.10;;;;;;10481287;28;20283;-80
